Terminal Aerodrome Forecast
Issued by NWS

Home | Current Version | Previous Version | Graphics & Text | Print | Product List | Glossary On
Versions: 1 2 3 4 5 6 7 8 9 10 11 12 13
000
FTUS43 KBIS 251700
TAFJMS
TAF
KJMS 251734Z 2518/2618 11011KT P6SM OVC015
     FM252100 12011KT P6SM OVC025
     FM260300 12007KT P6SM OVC040=

USA.gov is the U.S. government's official web portal to all federal, state and local government web resources and services.